createdAt,value
2023-03-21T00:00:57.065Z,82.45
2023-03-21T00:01:57.035Z,82.45
2023-03-21T00:02:57.049Z,82.35
2023-03-21T00:03:57.078Z,82.04
2023-03-21T00:05:05.866Z,81.94
2023-03-21T00:05:58.000Z,81.84
2023-03-21T00:06:57.000Z,81.73
2023-03-21T00:07:56.979Z,81.84
2023-03-21T00:08:56.986Z,81.84
2023-03-21T00:10:04.879Z,81.52
2023-03-21T00:10:57.923Z,81.52
2023-03-21T00:11:56.894Z,81.52
2023-03-21T00:12:56.891Z,81.73
2023-03-21T00:13:56.878Z,81.94
2023-03-21T00:14:56.873Z,82.04
2023-03-21T00:16:05.500Z,82.04
2023-03-21T00:16:57.863Z,82.04
2023-03-21T00:17:56.840Z,81.84
2023-03-21T00:18:56.844Z,81.84
2023-03-21T00:19:56.806Z,81.73
2023-03-21T00:21:12.665Z,81.73
2023-03-21T00:22:07.489Z,81.84
2023-03-21T00:22:57.789Z,81.84
2023-03-21T00:23:56.738Z,82.04
2023-03-21T00:24:56.784Z,82.45
2023-03-21T00:25:56.729Z,82.65
2023-03-21T00:27:06.065Z,82.65
2023-03-21T00:28:08.016Z,82.55
2023-03-21T00:28:57.689Z,82.35
2023-03-21T00:29:56.683Z,82.35
2023-03-21T00:30:56.693Z,82.35
2023-03-21T00:31:56.629Z,82.35
2023-03-21T00:32:57.072Z,82.35
2023-03-21T00:33:56.602Z,82.76
2023-03-21T00:35:16.388Z,82.86
2023-03-21T00:36:04.963Z,82.86
2023-03-21T00:36:57.644Z,82.65
2023-03-21T00:37:56.563Z,82.55
2023-03-21T00:38:56.552Z,82.65
2023-03-21T00:39:56.659Z,82.65
2023-03-21T00:40:58.233Z,82.55
2023-03-21T00:41:56.537Z,82.55
2023-03-21T00:42:56.532Z,82.45
2023-03-21T00:43:56.474Z,82.55
2023-03-21T00:44:56.503Z,82.55
2023-03-21T00:45:56.458Z,82.86
2023-03-21T00:47:06.477Z,83.06
2023-03-21T00:47:57.589Z,83.06
2023-03-21T00:48:56.448Z,82.96
2023-03-21T00:49:56.399Z,83.06
2023-03-21T00:50:56.404Z,83.27
2023-03-21T00:51:59.576Z,83.37
2023-03-21T00:52:57.385Z,83.37
2023-03-21T00:53:56.370Z,83.37
2023-03-21T00:54:56.326Z,83.37
2023-03-21T00:55:56.356Z,83.47
2023-03-21T00:56:56.363Z,83.47
2023-03-21T00:58:02.164Z,83.47
2023-03-21T00:58:57.329Z,83.47
2023-03-21T00:59:56.289Z,83.47
2023-03-21T01:00:56.303Z,83.47
2023-03-21T01:01:56.283Z,83.06
2023-03-21T01:03:02.730Z,83.06
2023-03-21T01:03:57.252Z,82.96
2023-03-21T01:04:56.195Z,82.86
2023-03-21T01:05:56.203Z,82.86
2023-03-21T01:06:56.218Z,82.86
2023-03-21T01:07:56.170Z,82.96
2023-03-21T01:08:56.145Z,83.17
2023-03-21T01:09:56.171Z,83.37
2023-03-21T01:10:56.112Z,83.47
2023-03-21T01:11:56.158Z,83.47
2023-03-21T01:12:56.126Z,83.37
2023-03-21T01:14:07.323Z,83.37
2023-03-21T01:14:57.062Z,83.37
2023-03-21T01:15:56.105Z,83.37
2023-03-21T01:16:56.051Z,83.37
2023-03-21T01:17:56.030Z,83.37
2023-03-21T01:18:56.043Z,83.47
2023-03-21T01:19:56.037Z,83.47
2023-03-21T01:20:55.984Z,83.37
2023-03-21T01:21:56.008Z,83.47
2023-03-21T01:23:46.895Z,83.47
2023-03-21T01:24:54.160Z,83.47
2023-03-21T01:25:50.599Z,83.47
2023-03-21T01:26:48.584Z,83.47
2023-03-21T01:27:46.830Z,83.78
2023-03-21T01:28:46.840Z,83.78
2023-03-21T01:29:46.791Z,83.78
2023-03-21T01:30:46.811Z,83.88
2023-03-21T01:31:46.859Z,83.88
2023-03-21T01:32:46.781Z,83.78
2023-03-21T01:33:46.767Z,83.78
2023-03-21T01:34:46.731Z,83.68
2023-03-21T01:35:53.425Z,83.68
2023-03-21T01:36:47.746Z,83.27
2023-03-21T01:37:46.686Z,83.37
2023-03-21T01:38:46.680Z,83.47
2023-03-21T01:39:46.685Z,83.47
2023-03-21T01:40:46.675Z,83.68
2023-03-21T01:41:46.642Z,83.88
2023-03-21T01:42:46.697Z,83.78
2023-03-21T01:43:46.638Z,83.68
2023-03-21T01:44:46.615Z,83.68
2023-03-21T01:45:46.640Z,83.68
2023-03-21T01:46:56.976Z,83.58
2023-03-21T01:47:47.626Z,83.68
2023-03-21T01:48:46.573Z,83.68
2023-03-21T01:49:46.854Z,83.58
2023-03-21T01:50:46.545Z,83.47
2023-03-21T01:51:46.497Z,83.47
2023-03-21T01:52:46.545Z,83.68
2023-03-21T01:53:46.494Z,83.88
2023-03-21T01:54:46.477Z,83.88
2023-03-21T01:55:46.448Z,83.88
2023-03-21T01:56:46.447Z,83.88
2023-03-21T01:57:58.523Z,83.78
2023-03-21T01:58:47.453Z,83.78
2023-03-21T01:59:46.397Z,83.78
2023-03-21T02:00:46.478Z,84.09
2023-03-21T02:01:46.369Z,83.88
2023-03-21T02:02:46.402Z,83.98
2023-03-21T02:03:46.395Z,84.09
2023-03-21T02:04:46.372Z,83.78
2023-03-21T02:05:46.318Z,83.68
2023-03-21T02:06:46.341Z,83.47
2023-03-21T02:07:46.284Z,83.68
2023-03-21T02:08:46.332Z,83.68
2023-03-21T02:09:46.291Z,83.68
2023-03-21T02:10:46.290Z,83.27
2023-03-21T02:11:46.278Z,83.06
2023-03-21T02:12:46.260Z,83.06
2023-03-21T02:13:46.826Z,83.27
2023-03-21T02:14:46.243Z,83.37
2023-03-21T02:15:46.190Z,83.37
2023-03-21T02:16:46.250Z,83.47
2023-03-21T02:17:46.183Z,83.47
2023-03-21T02:18:46.148Z,83.58
2023-03-21T02:19:53.129Z,83.68
2023-03-21T02:20:47.148Z,83.47
2023-03-21T02:21:46.150Z,83.68
2023-03-21T02:22:46.140Z,83.68
2023-03-21T02:23:46.110Z,83.68
2023-03-21T02:24:48.954Z,83.68
2023-03-21T02:25:47.109Z,83.68
2023-03-21T02:26:48.163Z,83.78
2023-03-21T02:27:46.097Z,83.98
2023-03-21T02:28:46.050Z,84.09
2023-03-21T02:29:46.024Z,84.19
2023-03-21T02:30:52.000Z,84.19
2023-03-21T02:31:47.020Z,84.09
2023-03-21T02:32:45.991Z,84.19
2023-03-21T02:33:45.998Z,84.19
2023-03-21T02:34:45.976Z,84.19
2023-03-21T02:35:54.257Z,83.98
2023-03-21T02:36:46.966Z,84.09
2023-03-21T02:37:51.990Z,84.19
2023-03-21T02:38:46.901Z,84.19
2023-03-21T02:39:45.893Z,84.19
2023-03-21T02:40:45.902Z,84.29
2023-03-21T02:41:45.894Z,84.39
2023-03-21T02:42:51.622Z,84.50
2023-03-21T02:43:46.857Z,84.50
2023-03-21T02:44:45.809Z,84.50
2023-03-21T02:45:45.854Z,84.60
2023-03-21T02:46:51.240Z,84.60
2023-03-21T02:47:46.835Z,84.70
2023-03-21T02:48:50.986Z,84.70
2023-03-21T02:49:46.788Z,84.70
2023-03-21T02:50:45.756Z,84.70
2023-03-21T02:51:45.733Z,84.70
2023-03-21T02:52:45.759Z,84.80
2023-03-21T02:53:45.737Z,84.80
2023-03-21T02:54:48.301Z,84.91
2023-03-21T02:55:45.724Z,84.91
2023-03-21T02:56:45.716Z,84.91
2023-03-21T02:57:46.695Z,84.91
2023-03-21T02:58:45.655Z,85.01
2023-03-21T02:59:54.377Z,85.11
2023-03-21T03:00:46.638Z,85.11
2023-03-21T03:01:45.774Z,85.22
2023-03-21T03:02:45.578Z,85.22
2023-03-21T03:03:45.621Z,85.42
2023-03-21T03:04:45.560Z,85.42
2023-03-21T03:05:45.576Z,85.31
2023-03-21T03:06:45.567Z,85.31
2023-03-21T03:07:45.556Z,85.42
2023-03-21T03:08:59.763Z,85.42
2023-03-21T03:09:46.548Z,85.31
2023-03-21T03:10:45.499Z,85.31
2023-03-21T03:11:45.536Z,85.22
2023-03-21T03:12:45.518Z,85.42
2023-03-21T03:13:46.019Z,85.42
2023-03-21T03:15:00.352Z,85.31
2023-03-21T03:15:46.446Z,85.31
2023-03-21T03:16:45.441Z,85.31
2023-03-21T03:17:45.432Z,85.42
2023-03-21T03:18:45.398Z,85.42
2023-03-21T03:19:50.509Z,85.52
2023-03-21T03:20:46.377Z,85.63
2023-03-21T03:21:45.411Z,85.63
2023-03-21T03:22:45.352Z,85.63
2023-03-21T03:23:45.346Z,85.52
2023-03-21T03:24:45.324Z,85.56
2023-03-21T03:25:45.355Z,85.52
2023-03-21T03:26:45.340Z,85.56
2023-03-21T03:27:45.280Z,85.56
2023-03-21T03:28:45.270Z,85.56
2023-03-21T03:29:45.285Z,85.66
2023-03-21T03:31:00.869Z,85.66
2023-03-21T03:31:46.360Z,85.66
2023-03-21T03:32:45.257Z,85.66
2023-03-21T03:33:45.220Z,85.66
2023-03-21T03:34:45.226Z,85.77
2023-03-21T03:35:48.262Z,85.87
2023-03-21T03:36:46.192Z,86.07
2023-03-21T03:37:45.169Z,86.18
2023-03-21T03:38:45.150Z,86.18
2023-03-21T03:39:45.138Z,86.28
2023-03-21T03:40:45.131Z,86.42
2023-03-21T03:42:05.849Z,86.42
2023-03-21T03:42:46.064Z,86.42
2023-03-21T03:43:45.090Z,86.42
2023-03-21T03:44:45.043Z,86.42
2023-03-21T03:45:45.079Z,86.63
2023-03-21T03:46:45.087Z,86.63
2023-03-21T03:47:56.307Z,86.52
2023-03-21T03:48:46.032Z,86.63
2023-03-21T03:49:45.042Z,86.63
2023-03-21T03:50:44.970Z,86.63
2023-03-21T03:51:44.993Z,86.73
2023-03-21T03:52:55.579Z,86.63
2023-03-21T03:53:45.988Z,86.63
2023-03-21T03:54:44.967Z,86.83
2023-03-21T03:55:44.936Z,86.63
2023-03-21T03:56:44.926Z,86.73
2023-03-21T03:57:44.884Z,86.73
2023-03-21T03:58:46.144Z,86.73
2023-03-21T03:59:44.906Z,86.73
2023-03-21T04:00:44.839Z,86.73
2023-03-21T04:01:44.887Z,86.63
2023-03-21T04:02:44.943Z,86.73
2023-03-21T04:03:50.908Z,86.83
2023-03-21T04:04:45.850Z,86.73
2023-03-21T04:05:44.801Z,86.73
2023-03-21T04:06:44.796Z,86.32
2023-03-21T04:07:44.756Z,86.32
2023-03-21T04:08:44.749Z,86.42
2023-03-21T04:09:45.280Z,86.32
2023-03-21T04:10:44.747Z,86.22
2023-03-21T04:11:44.727Z,86.32
2023-03-21T04:12:44.699Z,86.32
2023-03-21T04:13:44.724Z,86.11
2023-03-21T04:14:47.151Z,86.22
2023-03-21T04:15:44.659Z,86.32
2023-03-21T04:16:44.679Z,86.42
2023-03-21T04:17:44.656Z,86.52
2023-03-21T04:18:44.638Z,86.52
2023-03-21T04:19:44.615Z,86.42
2023-03-21T04:20:44.972Z,86.42
2023-03-21T04:21:44.575Z,86.42
2023-03-21T04:22:44.584Z,86.32
2023-03-21T04:23:44.577Z,86.28
2023-03-21T04:24:44.531Z,86.38
2023-03-21T04:25:55.566Z,86.48
2023-03-21T04:26:45.519Z,86.52
2023-03-21T04:27:44.501Z,86.63
2023-03-21T04:28:44.537Z,86.48
2023-03-21T04:29:44.511Z,86.58
2023-03-21T04:30:58.549Z,86.48
2023-03-21T04:31:45.516Z,86.38
2023-03-21T04:32:44.421Z,86.52
2023-03-21T04:33:44.509Z,86.58
2023-03-21T04:34:44.425Z,86.48
2023-03-21T04:35:44.428Z,86.48
2023-03-21T04:36:44.403Z,86.48
2023-03-21T04:37:44.377Z,86.38
2023-03-21T04:38:44.406Z,86.28
2023-03-21T04:39:44.378Z,86.38
2023-03-21T04:40:44.365Z,86.38
2023-03-21T04:41:44.327Z,86.38
2023-03-21T04:42:44.314Z,86.18
2023-03-21T04:43:44.347Z,86.18
2023-03-21T04:44:44.305Z,86.28
2023-03-21T04:45:44.368Z,86.28
2023-03-21T04:46:44.276Z,86.18
2023-03-21T04:47:44.303Z,86.18
2023-03-21T04:48:44.265Z,86.18
2023-03-21T04:49:44.255Z,86.18
2023-03-21T04:50:44.210Z,86.18
2023-03-21T04:51:44.257Z,86.18
2023-03-21T04:52:44.164Z,86.07
2023-03-21T04:53:44.214Z,86.07
2023-03-21T04:54:44.209Z,86.07
2023-03-21T04:55:44.135Z,85.97
2023-03-21T04:56:44.145Z,85.97
2023-03-21T04:57:44.144Z,86.07
2023-03-21T04:58:44.103Z,86.07
2023-03-21T04:59:44.131Z,86.07
2023-03-21T05:00:44.115Z,86.07
2023-03-21T05:01:44.142Z,86.18
2023-03-21T05:02:44.060Z,86.18
2023-03-21T05:03:44.100Z,86.18
2023-03-21T05:04:44.035Z,86.28
2023-03-21T05:05:44.049Z,86.38
2023-03-21T05:06:44.016Z,86.38
2023-03-21T05:07:44.017Z,86.28
2023-03-21T05:08:43.972Z,86.07
2023-03-21T05:09:43.986Z,86.07
2023-03-21T05:10:43.937Z,86.18
2023-03-21T05:11:43.967Z,86.28
2023-03-21T05:12:43.929Z,86.28
2023-03-21T05:13:43.950Z,86.38
2023-03-21T05:14:43.899Z,86.48
2023-03-21T05:15:43.901Z,86.48
2023-03-21T05:16:43.879Z,86.48
2023-03-21T05:17:43.893Z,86.48
2023-03-21T05:18:43.865Z,86.48
2023-03-21T05:19:43.850Z,86.48
2023-03-21T05:20:43.826Z,86.58
2023-03-21T05:21:43.824Z,86.48
2023-03-21T05:22:43.807Z,86.58
2023-03-21T05:23:43.807Z,86.58
2023-03-21T05:24:43.757Z,86.58
2023-03-21T05:25:43.749Z,86.58
2023-03-21T05:26:43.739Z,86.48
2023-03-21T05:27:43.771Z,86.48
2023-03-21T05:28:43.694Z,86.48
2023-03-21T05:29:43.737Z,86.58
2023-03-21T05:30:43.730Z,86.69
2023-03-21T05:31:43.693Z,86.69
2023-03-21T05:32:43.648Z,86.58
2023-03-21T05:33:43.691Z,86.48
2023-03-21T05:34:43.620Z,86.58
2023-03-21T05:35:43.646Z,86.58
2023-03-21T05:36:43.617Z,86.69
2023-03-21T05:37:43.596Z,86.69
2023-03-21T05:38:43.644Z,86.69
2023-03-21T05:39:43.589Z,86.79
2023-03-21T05:40:43.571Z,86.79
2023-03-21T05:41:43.569Z,86.69
2023-03-21T05:42:43.527Z,86.69
2023-03-21T05:43:43.527Z,86.58
2023-03-21T05:44:43.531Z,86.69
2023-03-21T05:45:43.543Z,86.69
2023-03-21T05:46:43.558Z,86.69
2023-03-21T05:47:43.565Z,86.58
2023-03-21T05:48:43.434Z,86.48
2023-03-21T05:49:43.444Z,86.58
2023-03-21T05:50:43.436Z,86.58
2023-03-21T05:51:43.421Z,86.58
2023-03-21T05:52:43.419Z,86.58
2023-03-21T05:53:43.426Z,86.69
2023-03-21T05:54:43.401Z,87.10
2023-03-21T05:55:43.380Z,87.20
2023-03-21T05:56:43.352Z,87.51
2023-03-21T05:57:43.388Z,87.82
2023-03-21T05:58:43.331Z,87.92
2023-03-21T05:59:43.360Z,88.23
2023-03-21T06:00:43.283Z,88.53
2023-03-21T06:01:43.323Z,88.84
2023-03-21T06:02:43.331Z,89.36
2023-03-21T06:03:43.335Z,89.36
2023-03-21T06:04:43.257Z,89.45
2023-03-21T06:05:43.250Z,89.56
2023-03-21T06:06:43.232Z,89.76
2023-03-21T06:07:43.238Z,89.87
2023-03-21T06:08:43.189Z,89.97
2023-03-21T06:09:43.182Z,90.17
2023-03-21T06:10:43.201Z,90.28
2023-03-21T06:11:43.172Z,90.28
2023-03-21T06:12:43.136Z,90.48
2023-03-21T06:13:43.156Z,90.58
2023-03-21T06:14:43.127Z,90.58
2023-03-21T06:15:43.130Z,90.58
2023-03-21T06:16:43.085Z,90.48
2023-03-21T06:17:43.074Z,90.37
2023-03-21T06:18:43.100Z,90.37
2023-03-21T06:19:43.060Z,90.37
2023-03-21T06:20:43.049Z,90.48
2023-03-21T06:21:43.078Z,90.58
2023-03-21T06:22:43.009Z,90.58
2023-03-21T06:23:43.028Z,90.48
2023-03-21T06:24:42.970Z,90.28
2023-03-21T06:25:42.961Z,90.28
2023-03-21T06:26:42.981Z,90.28
2023-03-21T06:27:42.940Z,90.07
2023-03-21T06:28:42.922Z,90.17
2023-03-21T06:29:42.925Z,90.28
2023-03-21T06:30:42.927Z,90.17
2023-03-21T06:31:42.970Z,90.17
2023-03-21T06:32:42.909Z,90.17
2023-03-21T06:33:42.866Z,90.17
2023-03-21T06:34:42.858Z,89.97
2023-03-21T06:35:42.873Z,89.56
2023-03-21T06:36:42.942Z,89.56
2023-03-21T06:37:42.849Z,89.56
2023-03-21T06:38:42.810Z,89.56
2023-03-21T06:39:42.843Z,89.66
2023-03-21T06:40:42.792Z,89.76
2023-03-21T06:41:42.772Z,89.62
2023-03-21T06:42:42.793Z,89.62
2023-03-21T06:43:42.761Z,89.42
2023-03-21T06:44:42.733Z,89.21
2023-03-21T06:45:42.709Z,89.31
2023-03-21T06:46:42.719Z,89.31
2023-03-21T06:47:42.752Z,89.42
2023-03-21T06:48:42.733Z,89.42
2023-03-21T06:49:42.649Z,89.31
2023-03-21T06:50:42.683Z,89.31
2023-03-21T06:51:42.638Z,89.42
2023-03-21T06:52:42.647Z,89.42
2023-03-21T06:53:42.620Z,89.31
2023-03-21T06:54:42.594Z,89.21
2023-03-21T06:55:42.592Z,89.21
2023-03-21T06:56:42.580Z,89.21
2023-03-21T06:57:42.544Z,89.21
2023-03-21T06:58:42.554Z,89.31
2023-03-21T06:59:42.579Z,89.42
2023-03-21T07:00:42.537Z,89.42
2023-03-21T07:01:42.544Z,89.42
2023-03-21T07:02:42.564Z,89.31
2023-03-21T07:03:42.476Z,89.31
2023-03-21T07:04:42.477Z,89.31
2023-03-21T07:05:42.472Z,89.42
2023-03-21T07:06:42.433Z,89.51
2023-03-21T07:07:42.482Z,89.62
2023-03-21T07:08:42.466Z,89.72
2023-03-21T07:09:42.402Z,90.03
2023-03-21T07:10:44.346Z,90.44
2023-03-21T07:11:42.364Z,90.64
2023-03-21T07:12:42.373Z,90.84
2023-03-21T07:13:42.362Z,91.05
2023-03-21T07:14:42.334Z,91.16
2023-03-21T07:15:42.375Z,91.11
2023-03-21T07:16:42.350Z,91.56
2023-03-21T07:17:42.323Z,91.67
2023-03-21T07:18:42.325Z,91.56
2023-03-21T07:19:44.696Z,91.56
2023-03-21T07:20:42.295Z,91.77
2023-03-21T07:21:42.233Z,91.97
2023-03-21T07:22:42.264Z,92.18
2023-03-21T07:23:49.809Z,92.28
2023-03-21T07:24:42.214Z,92.49
2023-03-21T07:25:42.267Z,92.69
2023-03-21T07:26:42.208Z,92.90
2023-03-21T07:27:42.281Z,93.20
2023-03-21T07:28:42.179Z,93.30
2023-03-21T07:29:42.157Z,93.51
2023-03-21T07:30:42.219Z,93.71
2023-03-21T07:31:42.193Z,93.92
2023-03-21T07:32:42.117Z,94.33
2023-03-21T07:33:42.084Z,94.43
2023-03-21T07:34:42.083Z,94.43
2023-03-21T07:35:42.158Z,94.54
2023-03-21T07:36:42.339Z,94.64
2023-03-21T07:37:42.058Z,94.74
2023-03-21T07:38:42.089Z,94.84
2023-03-21T07:39:42.048Z,94.95
2023-03-21T07:40:42.000Z,95.15
2023-03-21T07:41:42.015Z,95.36
2023-03-21T07:42:41.979Z,95.36
2023-03-21T07:43:41.975Z,95.46
2023-03-21T07:44:41.976Z,95.56
2023-03-21T07:45:42.188Z,95.66
2023-03-21T07:46:41.939Z,95.66
2023-03-21T07:47:41.925Z,95.76
2023-03-21T07:48:41.944Z,95.87
2023-03-21T07:49:41.894Z,95.82
2023-03-21T07:50:41.873Z,96.03
2023-03-21T07:51:41.876Z,96.03
2023-03-21T07:52:41.892Z,96.23
2023-03-21T07:53:42.613Z,96.23
2023-03-21T07:54:41.815Z,96.23
2023-03-21T07:55:41.795Z,96.33
2023-03-21T07:56:41.785Z,96.44
2023-03-21T07:57:41.768Z,96.44
2023-03-21T07:58:41.800Z,96.54
2023-03-21T07:59:41.748Z,96.54
2023-03-21T08:00:41.733Z,96.74
2023-03-21T08:01:41.733Z,96.95
2023-03-21T08:02:41.765Z,97.05
2023-03-21T08:03:41.887Z,97.15
2023-03-21T08:04:41.726Z,97.15
2023-03-21T08:05:42.152Z,97.25
2023-03-21T08:06:41.689Z,97.36
2023-03-21T08:07:41.677Z,97.46
2023-03-21T08:08:41.678Z,97.56
2023-03-21T08:09:41.636Z,97.46
2023-03-21T08:10:41.642Z,97.56
2023-03-21T08:11:41.585Z,97.56
2023-03-21T08:12:41.608Z,97.66
2023-03-21T08:13:41.542Z,97.66
2023-03-21T08:14:41.608Z,97.77
2023-03-21T08:15:41.532Z,97.87
2023-03-21T08:16:41.581Z,97.97
2023-03-21T08:17:41.504Z,98.07
2023-03-21T08:18:41.527Z,98.18
2023-03-21T08:19:41.524Z,98.18
2023-03-21T08:20:41.482Z,98.18
2023-03-21T08:21:41.494Z,98.28
2023-03-21T08:22:41.511Z,98.38
2023-03-21T08:23:41.438Z,98.38
2023-03-21T08:24:41.462Z,98.38
2023-03-21T08:25:41.522Z,98.49
2023-03-21T08:26:41.447Z,98.58
2023-03-21T08:27:41.399Z,98.69
2023-03-21T08:28:41.437Z,98.79
2023-03-21T08:29:41.350Z,98.79
2023-03-21T08:30:41.418Z,98.79
2023-03-21T08:31:41.334Z,98.90
2023-03-21T08:32:41.325Z,98.90
2023-03-21T08:33:41.392Z,98.99
2023-03-21T08:34:41.303Z,98.99
2023-03-21T08:35:41.743Z,98.99
2023-03-21T08:36:41.314Z,99.10
2023-03-21T08:37:41.269Z,99.10
2023-03-21T08:38:41.249Z,99.20
2023-03-21T08:39:41.280Z,99.20
2023-03-21T08:40:41.268Z,99.20
2023-03-21T08:41:41.260Z,99.30
2023-03-21T08:42:41.230Z,99.41
2023-03-21T08:43:41.169Z,99.51
2023-03-21T08:44:41.168Z,99.51
2023-03-21T08:45:41.157Z,99.61
2023-03-21T08:46:41.503Z,99.61
2023-03-21T08:47:41.174Z,99.61
2023-03-21T08:48:41.126Z,99.61
2023-03-21T08:49:41.091Z,99.71
2023-03-21T08:50:41.143Z,99.71
2023-03-21T08:51:41.086Z,99.71
2023-03-21T08:52:41.104Z,99.71
2023-03-21T08:53:41.076Z,99.71
2023-03-21T08:54:41.055Z,99.71
2023-03-21T08:55:41.056Z,99.71
2023-03-21T08:56:41.007Z,99.82
2023-03-21T08:57:40.998Z,99.82
2023-03-21T08:58:41.024Z,99.82
2023-03-21T08:59:40.953Z,99.82
2023-03-21T09:00:40.990Z,99.82
2023-03-21T09:01:40.998Z,99.82
2023-03-21T09:02:41.011Z,99.91
2023-03-21T09:03:40.947Z,99.91
2023-03-21T09:04:41.050Z,99.91
2023-03-21T09:05:40.968Z,99.99
2023-03-21T09:06:40.977Z,99.99
2023-03-21T09:07:40.881Z,99.91
2023-03-21T09:08:40.882Z,99.91
2023-03-21T09:09:40.825Z,99.91
2023-03-21T09:10:40.853Z,99.99
2023-03-21T09:11:40.813Z,99.99
2023-03-21T09:12:40.853Z,99.99
2023-03-21T09:13:40.818Z,99.99
2023-03-21T09:14:40.859Z,99.99
2023-03-21T09:15:41.035Z,99.99
2023-03-21T09:16:40.773Z,99.99
2023-03-21T09:17:40.745Z,99.99
2023-03-21T09:18:40.735Z,99.99
2023-03-21T09:19:40.737Z,99.99
2023-03-21T09:20:40.742Z,99.99
2023-03-21T09:21:40.710Z,99.99
2023-03-21T09:22:42.596Z,99.99
2023-03-21T09:23:40.739Z,99.99
2023-03-21T09:24:40.729Z,99.99
2023-03-21T09:25:40.929Z,99.99
2023-03-21T09:26:40.633Z,99.99
2023-03-21T09:27:41.566Z,99.99
2023-03-21T09:28:40.725Z,99.99
2023-03-21T09:29:40.592Z,99.99
2023-03-21T09:30:40.617Z,99.99
2023-03-21T09:31:40.666Z,99.99
2023-03-21T09:32:40.581Z,99.99
2023-03-21T09:33:40.539Z,99.99
2023-03-21T09:34:40.760Z,99.93
2023-03-21T09:35:41.169Z,99.93
2023-03-21T09:36:40.562Z,99.82
2023-03-21T09:37:40.471Z,99.82
2023-03-21T09:38:40.498Z,99.82
2023-03-21T09:39:40.472Z,99.82
2023-03-21T09:40:40.498Z,99.82
2023-03-21T09:41:40.431Z,99.72
2023-03-21T09:42:40.477Z,99.57
2023-03-21T09:43:40.403Z,99.47
2023-03-21T09:44:40.430Z,99.37
2023-03-21T09:45:40.553Z,99.37
2023-03-21T09:46:40.444Z,99.27
2023-03-21T09:47:40.377Z,99.16
2023-03-21T09:48:50.569Z,99.21
2023-03-21T09:49:41.380Z,99.16
2023-03-21T09:50:40.320Z,99.11
2023-03-21T09:51:40.335Z,99.11
2023-03-21T09:52:40.293Z,99.11
2023-03-21T09:53:40.274Z,99.01
2023-03-21T09:54:40.312Z,99.11
2023-03-21T09:55:40.871Z,99.21
2023-03-21T09:56:40.630Z,99.21
2023-03-21T09:57:40.274Z,99.21
2023-03-21T09:58:40.257Z,99.11
2023-03-21T09:59:40.352Z,99.21
2023-03-21T10:00:40.307Z,99.31
2023-03-21T10:01:40.187Z,99.37
2023-03-21T10:02:40.199Z,99.41
2023-03-21T10:03:40.136Z,99.37
2023-03-21T10:04:40.190Z,99.27
2023-03-21T10:05:40.518Z,99.16
2023-03-21T10:06:40.862Z,99.16
2023-03-21T10:07:40.114Z,99.16
2023-03-21T10:08:40.112Z,99.16
2023-03-21T10:09:40.096Z,99.16
2023-03-21T10:10:40.562Z,99.16
2023-03-21T10:11:40.042Z,99.16
2023-03-21T10:12:40.060Z,99.16
2023-03-21T10:13:40.041Z,99.16
2023-03-21T10:14:40.080Z,99.27
2023-03-21T10:15:40.343Z,99.27
2023-03-21T10:16:40.040Z,99.27
2023-03-21T10:17:39.982Z,99.27
2023-03-21T10:18:39.977Z,99.27
2023-03-21T10:19:39.957Z,99.27
2023-03-21T10:20:39.944Z,99.16
2023-03-21T10:22:40.969Z,99.11
2023-03-21T10:23:39.882Z,99.11
2023-03-21T10:24:39.892Z,99.11
2023-03-21T10:25:40.184Z,99.01
2023-03-21T10:26:39.860Z,98.90
2023-03-21T10:27:39.835Z,98.90
2023-03-21T10:28:52.563Z,98.90
2023-03-21T10:29:40.805Z,98.80
2023-03-21T10:30:39.853Z,98.70
2023-03-21T10:31:39.826Z,98.60
2023-03-21T10:32:39.867Z,98.55
2023-03-21T10:33:39.823Z,98.65
2023-03-21T10:34:39.763Z,98.65
2023-03-21T10:35:40.566Z,98.35
2023-03-21T10:36:39.791Z,98.24
2023-03-21T10:37:39.789Z,98.04
2023-03-21T10:38:39.699Z,97.83
2023-03-21T10:39:39.701Z,97.83
2023-03-21T10:40:39.695Z,97.83
2023-03-21T10:41:39.686Z,97.83
2023-03-21T10:42:39.697Z,97.94
2023-03-21T10:43:39.639Z,97.94
2023-03-21T10:44:39.641Z,97.83
2023-03-21T10:45:39.915Z,97.83
2023-03-21T10:46:39.946Z,97.42
2023-03-21T10:47:39.926Z,97.22
2023-03-21T10:48:39.763Z,97.12
2023-03-21T10:50:05.452Z,96.96
2023-03-21T10:50:40.567Z,96.96
2023-03-21T10:51:39.572Z,96.96
2023-03-21T10:52:39.515Z,97.02
2023-03-21T10:53:39.577Z,97.12
2023-03-21T10:54:39.475Z,97.02
2023-03-21T10:55:39.958Z,97.12
2023-03-21T10:56:39.486Z,97.12
2023-03-21T10:57:39.493Z,97.02
2023-03-21T10:58:39.467Z,97.02
2023-03-21T10:59:39.439Z,96.92
2023-03-21T11:00:39.451Z,96.81
2023-03-21T11:01:39.649Z,96.51
2023-03-21T11:02:39.443Z,96.55
2023-03-21T11:03:39.381Z,96.71
2023-03-21T11:04:39.384Z,96.61
2023-03-21T11:05:39.729Z,96.55
2023-03-21T11:06:39.378Z,96.45
2023-03-21T11:07:39.406Z,96.55
2023-03-21T11:08:39.304Z,96.55
2023-03-21T11:09:39.304Z,96.25
2023-03-21T11:10:39.303Z,96.45
2023-03-21T11:11:39.327Z,96.61
2023-03-21T11:12:39.320Z,96.71
2023-03-21T11:13:39.297Z,96.41
2023-03-21T11:14:39.224Z,96.10
2023-03-21T11:15:39.609Z,95.79
2023-03-21T11:16:40.516Z,95.73
2023-03-21T11:17:39.231Z,95.79
2023-03-21T11:18:39.259Z,95.69
2023-03-21T11:19:39.486Z,95.53
2023-03-21T11:20:39.190Z,95.43
2023-03-21T11:21:39.197Z,95.12
2023-03-21T11:22:39.145Z,94.87
2023-03-21T11:23:39.153Z,94.77
2023-03-21T11:24:39.116Z,94.87
2023-03-21T11:25:39.442Z,94.67
2023-03-21T11:26:39.151Z,94.87
2023-03-21T11:27:39.084Z,94.97
2023-03-21T11:28:39.087Z,94.82
2023-03-21T11:29:39.128Z,95.03
2023-03-21T11:30:39.097Z,94.82
2023-03-21T11:31:39.060Z,94.73
2023-03-21T11:32:39.025Z,94.11
2023-03-21T11:33:39.026Z,94.21
2023-03-21T11:34:38.976Z,94.52
2023-03-21T11:35:39.291Z,93.91
2023-03-21T11:36:39.029Z,93.91
2023-03-21T11:37:38.957Z,94.01
2023-03-21T11:38:38.924Z,94.21
2023-03-21T11:39:38.954Z,94.42
2023-03-21T11:40:38.915Z,94.42
2023-03-21T11:41:38.923Z,94.32
2023-03-21T11:42:38.906Z,94.32
2023-03-21T11:43:38.867Z,94.32
2023-03-21T11:44:38.874Z,94.11
2023-03-21T11:45:39.223Z,93.70
2023-03-21T11:46:38.929Z,93.91
2023-03-21T11:47:38.916Z,93.80
2023-03-21T11:48:38.797Z,93.70
2023-03-21T11:49:38.820Z,93.91
2023-03-21T11:50:38.768Z,94.11
2023-03-21T11:51:38.765Z,94.21
2023-03-21T11:52:38.756Z,94.32
2023-03-21T11:53:38.771Z,94.21
2023-03-21T11:54:38.769Z,94.11
2023-03-21T11:55:39.135Z,94.11
2023-03-21T11:56:38.686Z,94.21
2023-03-21T11:57:38.703Z,94.21
2023-03-21T11:58:38.748Z,94.21
2023-03-21T11:59:38.717Z,94.21
2023-03-21T12:00:38.706Z,94.21
2023-03-21T12:01:38.670Z,94.21
2023-03-21T12:02:38.708Z,94.32
2023-03-21T12:03:47.566Z,94.52
2023-03-21T12:04:39.769Z,94.32
2023-03-21T12:05:38.948Z,94.42
2023-03-21T12:06:38.641Z,94.46
2023-03-21T12:07:38.580Z,94.46
2023-03-21T12:08:38.557Z,94.67
2023-03-21T12:09:38.572Z,94.87
2023-03-21T12:10:38.552Z,94.77
2023-03-21T12:11:38.899Z,94.97
2023-03-21T12:12:39.668Z,95.18
2023-03-21T12:13:38.524Z,95.38
2023-03-21T12:14:38.507Z,95.48
2023-03-21T12:15:38.936Z,95.48
2023-03-21T12:16:38.536Z,95.59
2023-03-21T12:17:38.473Z,95.69
2023-03-21T12:18:38.422Z,95.69
2023-03-21T12:19:38.465Z,95.79
2023-03-21T12:20:38.414Z,95.53
2023-03-21T12:21:38.411Z,95.53
2023-03-21T12:22:38.398Z,95.73
2023-03-21T12:23:38.472Z,95.84
2023-03-21T12:24:38.330Z,96.00
2023-03-21T12:25:38.622Z,96.25
2023-03-21T12:26:38.375Z,96.34
2023-03-21T12:27:38.322Z,96.45
2023-03-21T12:28:38.285Z,96.66
2023-03-21T12:29:38.299Z,96.75
2023-03-21T12:30:38.270Z,96.75
2023-03-21T12:31:38.411Z,96.86
2023-03-21T12:32:38.267Z,96.96
2023-03-21T12:33:38.226Z,96.96
2023-03-21T12:34:38.214Z,97.06
2023-03-21T12:35:38.588Z,97.06
2023-03-21T12:36:38.215Z,96.96
2023-03-21T12:37:38.225Z,97.06
2023-03-21T12:38:38.145Z,97.06
2023-03-21T12:39:38.156Z,97.02
2023-03-21T12:40:38.152Z,97.12
2023-03-21T12:41:38.149Z,97.12
2023-03-21T12:42:38.169Z,97.12
2023-03-21T12:43:38.139Z,97.22
2023-03-21T12:44:38.100Z,97.33
2023-03-21T12:45:46.541Z,97.12
2023-03-21T12:46:39.103Z,97.12
2023-03-21T12:47:38.083Z,96.81
2023-03-21T12:48:38.055Z,96.51
2023-03-21T12:49:38.056Z,96.20
2023-03-21T12:50:38.037Z,95.89
2023-03-21T12:51:38.016Z,96.00
2023-03-21T12:52:37.973Z,96.05
2023-03-21T12:53:38.004Z,96.26
2023-03-21T12:54:37.999Z,96.15